PGUA/UAM METAR and TAF weather

Enter ICAO airport designator
Station Type Date Time Source
PGUA METAR 2021/09/20 04:56 UTC NOAA

PGUA 200456Z 05006KT 10SM SCT017 30/24 A2982 RMK AO2A SLP088 T02970238 $


Station Type Date Time Source
PGUA Decoded METAR 2021/09/20 04:56 UTC NOAA

Andersen, Mariana Is, Andersen Air Force Base, GU, United States (PGUA) 13-35N 144-56E 187M
Sep 20, 2021 - 12:56 AM EDT / 2021.09.20 0456 UTC
Wind: from the NE (050 degrees) at 7 MPH (6 KT):0
Visibility: 10 mile(s):0
Sky conditions: partly cloudy
Temperature: 85.5 F (29.7 C)
Heat index: 93.9 F (34.4 C):1
Dew Point: 74.8 F (23.8 C)
Relative Humidity: 70%
Pressure (altimeter): 29.82 in. Hg (1009 hPa)
ob: PGUA 200456Z 05006KT 10SM SCT017 30/24 A2982 RMK AO2A SLP088 T02970238
cycle: 5

Station Type Date Time Source
PGUA TAF 2021/09/20 02:19 UTC NOAA

TAF PGUA 200200Z 2002/2108 VRB06KT 9999 SCT015 QNH2980INS
TEMPO 2018/2024 06010G15KT 8000 -SHRA BKN015 TX31/2002Z TN25/2017Z

Example: see airport list